Time;durP1;ratioP1;P1;durP2;ratioP2;P2;SDS_P1;SDS_P2;PMS_P1;PMS_P2;Temp;Humidity;BMP_temperature;BMP_pressure;BME280_temperature;BME280_humidity;BME280_pressure;Samples;Min_cycle;Max_cycle;Signal;HPM_P1;HPM_P2
2022/09/14 00:01:40;;;;;;;16.25;10.63;;;;;;;11.91;100.00;98337.81;5173090;27;20046;-49
2022/09/14 00:04:09;;;;;;;15.27;10.38;;;;;;;11.96;100.00;98334.66;5173116;27;20046;-49
2022/09/14 00:06:37;;;;;;;15.00;10.20;;;;;;;11.91;100.00;98326.03;5172917;27;20050;-49
2022/09/14 00:09:05;;;;;;;15.63;9.48;;;;;;;11.95;100.00;98324.06;5173159;27;20151;-49
2022/09/14 00:11:33;;;;;;;18.13;10.85;;;;;;;11.87;100.00;98320.53;5172994;27;20066;-51
2022/09/14 00:14:01;;;;;;;16.75;10.75;;;;;;;11.94;100.00;98320.53;5173043;27;20050;-52
2022/09/14 00:16:30;;;;;;;16.45;10.23;;;;;;;11.93;100.00;98309.94;5173218;27;20050;-49
2022/09/14 00:18:59;;;;;;;18.95;10.98;;;;;;;11.92;100.00;98306.41;5172819;27;20057;-50
2022/09/14 00:21:26;;;;;;;21.67;11.25;;;;;;;11.77;100.00;98307.56;5172752;27;20129;-49
2022/09/14 00:23:53;;;;;;;16.35;10.48;;;;;;;11.82;100.00;98281.66;5172682;27;20527;-50
2022/09/14 00:26:21;;;;;;;17.75;11.05;;;;;;;11.84;100.00;98282.06;5172334;27;20046;-50
2022/09/14 00:28:49;;;;;;;19.40;11.02;;;;;;;11.85;100.00;98291.91;5172884;27;20085;-49
2022/09/14 00:31:16;;;;;;;15.45;9.85;;;;;;;11.77;100.00;98299.34;5172975;27;20609;-50
2022/09/14 00:33:46;;;;;;;21.60;12.05;;;;;;;11.87;100.00;98293.09;5172638;27;20425;-52
2022/09/14 00:36:14;;;;;;;15.77;10.98;;;;;;;11.88;100.00;98288.38;5172728;27;20512;-50
2022/09/14 00:38:41;;;;;;;17.77;12.18;;;;;;;11.86;100.00;98285.22;5172482;27;20050;-50
2022/09/14 00:41:11;;;;;;;20.15;11.40;;;;;;;11.84;100.00;98280.13;5172494;27;20051;-49
2022/09/14 00:43:52;;;;;;;16.92;11.30;;;;;;;11.81;100.00;98261.66;5172567;27;20071;-50
2022/09/14 00:46:18;;;;;;;18.85;11.93;;;;;;;11.82;100.00;98262.44;5172361;27;20402;-50
2022/09/14 00:48:45;;;;;;;15.63;11.40;;;;;;;11.47;100.00;98277.78;5172261;27;20046;-49
2022/09/14 00:51:12;;;;;;;21.23;12.32;;;;;;;11.76;100.00;98265.59;5172271;27;20509;-50
2022/09/14 00:53:38;;;;;;;20.30;12.30;;;;;;;11.82;100.00;98260.47;5172337;27;20046;-51
2022/09/14 00:56:05;;;;;;;21.42;12.13;;;;;;;11.77;100.00;98260.91;5172477;27;20082;-49
2022/09/14 00:58:32;;;;;;;19.73;12.50;;;;;;;11.78;100.00;98278.94;5172389;27;20508;-49
2022/09/14 01:00:58;;;;;;;24.67;12.63;;;;;;;11.68;100.00;98269.53;5172353;27;20050;-49
2022/09/14 01:03:24;;;;;;;26.15;12.75;;;;;;;11.68;100.00;98269.53;5172267;27;20091;-50
2022/09/14 01:06:04;;;;;;;20.13;12.43;;;;;;;11.69;100.00;98262.84;5172201;27;20050;-50
2022/09/14 01:08:48;;;;;;;17.67;11.50;;;;;;;11.61;100.00;98258.56;5172526;27;20046;-51
2022/09/14 01:11:29;;;;;;;21.05;10.75;;;;;;;11.68;100.00;98252.28;5171984;27;20046;-52
2022/09/14 01:14:02;;;;;;;21.17;12.57;;;;;;;11.65;100.00;98247.56;5172401;27;20129;-49
2022/09/14 01:16:36;;;;;;;19.13;12.77;;;;;;;11.60;100.00;98240.53;5172241;27;20050;-51
2022/09/14 01:19:08;;;;;;;18.95;11.73;;;;;;;11.54;100.00;98236.59;5172180;27;20050;-55
2022/09/14 01:21:37;;;;;;;21.23;12.77;;;;;;;11.51;100.00;98240.13;5172499;27;20448;-52
2022/09/14 01:24:13;;;;;;;21.77;13.60;;;;;;;11.47;100.00;98231.13;5171943;27;20496;-50
2022/09/14 01:27:22;;;;;;;18.58;12.30;;;;;;;11.41;100.00;98236.22;5172175;27;20106;-51
2022/09/14 01:29:57;;;;;;;24.48;13.40;;;;;;;11.40;100.00;98217.41;5171917;27;20485;-49
2022/09/14 01:32:26;;;;;;;19.35;12.45;;;;;;;11.35;100.00;98215.84;5171891;27;20057;-53
2022/09/14 01:35:00;;;;;;;24.27;13.85;;;;;;;11.38;100.00;98200.53;5172209;27;20157;-50
2022/09/14 01:37:33;;;;;;;22.98;12.95;;;;;;;11.37;100.00;98188.00;5171790;27;20047;-51
2022/09/14 01:40:03;;;;;;;24.67;13.23;;;;;;;11.37;100.00;98183.31;5175056;27;20133;-50
2022/09/14 01:42:31;;;;;;;23.23;13.15;;;;;;;11.43;100.00;98186.41;5175401;27;20086;-50
2022/09/14 01:45:01;;;;;;;22.52;13.80;;;;;;;11.43;100.00;98189.97;5175156;27;20128;-49
2022/09/14 01:47:31;;;;;;;23.85;13.85;;;;;;;11.41;100.00;98184.06;5175413;27;20042;-49
2022/09/14 01:50:03;;;;;;;24.17;14.30;;;;;;;11.42;100.00;98182.09;5175388;27;20054;-49
2022/09/14 01:52:33;;;;;;;24.52;13.45;;;;;;;11.41;100.00;98184.06;5175188;27;20043;-50
2022/09/14 01:55:05;;;;;;;21.80;12.98;;;;;;;11.41;100.00;98183.31;5175436;27;20046;-49
2022/09/14 01:57:36;;;;;;;21.90;13.77;;;;;;;11.40;100.00;98171.53;5175343;27;20570;-50
2022/09/14 02:00:07;;;;;;;21.45;12.88;;;;;;;11.32;100.00;98159.78;5175197;27;20094;-50
2022/09/14 02:02:39;;;;;;;25.02;13.68;;;;;;;11.32;100.00;98154.28;5175507;27;20087;-52
2022/09/14 02:05:10;;;;;;;22.88;13.73;;;;;;;11.25;100.00;98159.78;5174955;27;20054;-50
2022/09/14 02:07:38;;;;;;;25.52;13.93;;;;;;;11.28;100.00;98150.00;5175172;27;20153;-50
2022/09/14 02:10:08;;;;;;;29.85;14.70;;;;;;;11.26;100.00;98142.16;5174874;27;20496;-51
2022/09/14 02:12:35;;;;;;;23.17;14.23;;;;;;;11.24;100.00;98139.03;5175250;27;20046;-50
2022/09/14 02:15:02;;;;;;;29.52;14.85;;;;;;;11.22;100.00;98135.09;5174812;27;20094;-49
2022/09/14 02:17:30;;;;;;;20.88;13.68;;;;;;;11.27;100.00;98130.00;5174903;27;20042;-50
2022/09/14 02:19:59;;;;;;;25.83;15.40;;;;;;;11.24;100.00;98124.53;5175118;27;20046;-50
2022/09/14 02:22:28;;;;;;;22.42;13.73;;;;;;;11.23;100.00;98126.50;5174776;27;20436;-49
2022/09/14 02:24:54;;;;;;;26.65;13.30;;;;;;;11.26;100.00;98127.63;5175282;27;20413;-50
2022/09/14 02:27:21;;;;;;;23.58;14.75;;;;;;;11.19;100.00;98133.16;5174884;27;20050;-50
2022/09/14 02:29:48;;;;;;;23.77;14.23;;;;;;;11.21;100.00;98131.56;5175103;27;20054;-50
2022/09/14 02:32:23;;;;;;;22.23;13.98;;;;;;;11.14;100.00;98128.06;5174403;27;20561;-49
2022/09/14 02:34:58;;;;;;;28.25;15.05;;;;;;;11.11;100.00;98113.19;5174930;27;20051;-49
2022/09/14 02:37:36;;;;;;;23.60;14.15;;;;;;;11.06;100.00;98099.84;5174464;27;20057;-50
2022/09/14 02:40:12;;;;;;;29.90;16.30;;;;;;;11.07;100.00;98091.25;5174729;27;20107;-50
2022/09/14 02:42:46;;;;;;;28.52;15.90;;;;;;;11.12;100.00;98090.03;5174514;27;20061;-50
2022/09/14 02:45:21;;;;;;;24.30;14.57;;;;;;;11.11;100.00;98091.22;5174430;27;20050;-50
2022/09/14 02:47:54;;;;;;;28.27;15.90;;;;;;;11.11;100.00;98083.00;5174737;27;20058;-50
2022/09/14 02:50:28;;;;;;;30.90;16.48;;;;;;;11.11;100.00;98076.75;5172592;27;20058;-50
2022/09/14 02:53:00;;;;;;;31.42;16.40;;;;;;;11.10;100.00;98075.19;5174538;27;20054;-49
2022/09/14 02:55:31;;;;;;;28.13;16.40;;;;;;;11.10;100.00;98065.00;5174233;27;20050;-50
2022/09/14 02:57:59;;;;;;;33.08;17.25;;;;;;;11.15;100.00;98066.53;5174078;27;20042;-49
2022/09/14 03:00:26;;;;;;;29.27;16.35;;;;;;;10.92;100.00;98073.22;5174391;27;20125;-50
2022/09/14 03:02:53;;;;;;;25.20;15.98;;;;;;;11.04;100.00;98045.41;5173986;27;20140;-52
2022/09/14 03:05:19;;;;;;;30.10;18.25;;;;;;;11.08;100.00;98045.38;5174148;27;20073;-50
2022/09/14 03:07:46;;;;;;;31.80;18.67;;;;;;;11.11;100.00;98041.84;5173941;27;20092;-50
2022/09/14 03:10:12;;;;;;;32.28;18.83;;;;;;;11.12;100.00;98040.66;5174026;27;20082;-50
2022/09/14 03:12:38;;;;;;;31.55;18.17;;;;;;;11.07;100.00;98039.13;5173798;27;20052;-50
2022/09/14 03:15:06;;;;;;;38.45;19.00;;;;;;;11.13;100.00;98046.94;5174295;27;20133;-52
2022/09/14 03:17:33;;;;;;;32.45;18.83;;;;;;;11.11;100.00;98044.59;5174041;27;20050;-50
2022/09/14 03:19:59;;;;;;;35.88;17.88;;;;;;;10.94;100.00;98045.44;5173736;27;20128;-52
2022/09/14 03:22:25;;;;;;;35.42;18.50;;;;;;;10.98;100.00;98035.22;5173836;27;20099;-49
2022/09/14 03:24:51;;;;;;;34.00;18.98;;;;;;;11.12;100.00;98034.41;5173676;27;20085;-51
2022/09/14 03:27:18;;;;;;;34.20;19.73;;;;;;;11.05;100.00;98032.47;5173797;27;20531;-49
2022/09/14 03:29:44;;;;;;;33.38;18.27;;;;;;;11.02;100.00;98036.78;5173689;27;20050;-52
2022/09/14 03:32:11;;;;;;;30.30;18.38;;;;;;;10.88;100.00;98028.59;5173846;27;20106;-51
2022/09/14 03:34:38;;;;;;;29.35;17.77;;;;;;;10.90;100.00;98014.50;5173411;27;20058;-51
2022/09/14 03:37:05;;;;;;;27.90;17.50;;;;;;;10.99;100.00;98010.13;5173610;27;20045;-52
2022/09/14 03:39:31;;;;;;;28.98;16.92;;;;;;;11.10;100.00;98020.31;5173467;27;20050;-52
2022/09/14 03:41:58;;;;;;;27.83;16.77;;;;;;;11.06;100.00;98023.06;5173757;27;20568;-50
2022/09/14 03:44:24;;;;;;;31.83;18.25;;;;;;;11.05;100.00;98024.25;5173386;27;20053;-51
2022/09/14 03:46:51;;;;;;;32.38;18.45;;;;;;;11.05;100.00;98024.25;5173607;27;20050;-52
2022/09/14 03:49:17;;;;;;;26.13;16.88;;;;;;;11.11;100.00;98014.44;5173630;27;20125;-53
2022/09/14 03:51:44;;;;;;;29.08;16.95;;;;;;;11.05;100.00;98025.00;5173673;27;20519;-50
2022/09/14 03:54:10;;;;;;;27.08;16.42;;;;;;;11.07;100.00;98019.16;5173533;27;20168;-52
2022/09/14 03:56:36;;;;;;;24.83;15.82;;;;;;;10.99;100.00;98010.13;5173363;27;20428;-50
2022/09/14 03:59:03;;;;;;;31.92;17.45;;;;;;;11.10;100.00;98004.66;5173496;27;20114;-49
2022/09/14 04:01:29;;;;;;;28.77;16.83;;;;;;;11.17;100.00;98018.34;5172613;27;20046;-52
2022/09/14 04:03:55;;;;;;;34.10;17.60;;;;;;;11.18;100.00;98027.34;5173076;27;20090;-49
2022/09/14 04:06:21;;;;;;;34.63;19.42;;;;;;;11.20;100.00;98025.78;5172932;27;20126;-49
2022/09/14 04:08:48;;;;;;;32.55;18.85;;;;;;;11.26;100.00;98040.66;5172902;27;20081;-50
2022/09/14 04:11:17;;;;;;;33.28;18.33;;;;;;;11.20;100.00;98050.47;5172918;27;20050;-50
2022/09/14 04:13:44;;;;;;;30.80;18.23;;;;;;;11.24;100.00;98047.72;5172812;27;20099;-50
2022/09/14 04:16:11;;;;;;;33.20;18.58;;;;;;;11.24;100.00;98058.69;5172938;27;20042;-49
2022/09/14 04:18:37;;;;;;;34.70;18.13;;;;;;;11.28;100.00;98053.97;5172835;27;20075;-49
2022/09/14 04:21:05;;;;;;;41.20;19.52;;;;;;;11.23;100.00;98071.63;5172965;27;20046;-50
2022/09/14 04:23:32;;;;;;;33.08;18.95;;;;;;;11.26;100.00;98070.03;5172625;27;20052;-49
2022/09/14 04:25:59;;;;;;;25.58;13.68;;;;;;;11.23;100.00;98059.84;5172717;27;20061;-50
2022/09/14 04:28:26;;;;;;;22.63;14.10;;;;;;;11.14;100.00;98054.78;5172600;27;20548;-49
2022/09/14 04:31:00;;;;;;;24.85;13.43;;;;;;;11.32;100.00;98055.50;5172822;27;20053;-51
2022/09/14 04:33:30;;;;;;;21.75;11.75;;;;;;;11.21;100.00;98043.78;5172505;27;20461;-50
2022/09/14 04:35:58;;;;;;;19.23;12.70;;;;;;;11.25;100.00;98046.53;5172531;27;20061;-50
2022/09/14 04:38:24;;;;;;;25.20;12.60;;;;;;;11.27;100.00;98035.94;5172426;27;20073;-49
2022/09/14 04:40:51;;;;;;;18.67;11.60;;;;;;;11.36;100.00;98049.22;5172594;27;20139;-49
2022/09/14 04:43:17;;;;;;;21.00;11.13;;;;;;;11.34;100.00;98059.84;5172540;27;20050;-49
2022/09/14 04:45:44;;;;;;;21.48;11.43;;;;;;;11.30;100.00;98059.84;5172359;27;20050;-50
2022/09/14 04:48:10;;;;;;;14.40;10.25;;;;;;;11.09;100.00;98071.63;5172495;27;20079;-52
2022/09/14 04:50:37;;;;;;;14.95;10.32;;;;;;;11.16;100.00;98057.13;5172163;27;20057;-49
2022/09/14 04:53:03;;;;;;;17.50;11.32;;;;;;;11.21;100.00;98059.47;5172379;27;20527;-52
2022/09/14 04:55:29;;;;;;;23.13;10.85;;;;;;;11.38;100.00;98053.16;5172122;27;20072;-49
2022/09/14 04:57:55;;;;;;;17.63;10.52;;;;;;;11.41;100.00;98059.81;5172449;27;20529;-50
2022/09/14 05:00:22;;;;;;;16.73;9.57;;;;;;;11.37;100.00;98062.56;5172104;27;20056;-49
2022/09/14 05:02:48;;;;;;;18.13;11.10;;;;;;;11.50;100.00;98060.19;5172168;27;20082;-51
2022/09/14 05:05:15;;;;;;;17.77;11.23;;;;;;;11.50;100.00;98071.16;5171929;27;20473;-52
2022/09/14 05:07:41;;;;;;;16.35;10.00;;;;;;;11.37;100.00;98072.75;5172218;27;20054;-50
2022/09/14 05:10:08;;;;;;;15.23;10.70;;;;;;;11.57;100.00;98068.38;5172285;27;20517;-49
2022/09/14 05:12:34;;;;;;;20.25;11.40;;;;;;;11.60;100.00;98058.56;5172440;27;20050;-50
2022/09/14 05:15:00;;;;;;;21.92;12.20;;;;;;;11.61;100.00;98063.66;5175431;27;20134;-53
2022/09/14 05:17:27;;;;;;;18.15;11.05;;;;;;;11.49;100.00;98070.34;5175776;27;20054;-52
2022/09/14 05:19:53;;;;;;;23.48;10.68;;;;;;;11.71;100.00;98070.28;5175770;27;20046;-50
2022/09/14 05:22:20;;;;;;;19.80;11.00;;;;;;;11.70;100.00;98082.44;5175800;27;20046;-53
2022/09/14 05:24:46;;;;;;;17.75;10.27;;;;;;;11.66;100.00;98071.50;5175905;27;20050;-52
2022/09/14 05:27:12;;;;;;;14.63;10.55;;;;;;;11.36;100.00;98054.72;5175441;27;20084;-53
2022/09/14 05:29:39;;;;;;;13.52;9.02;;;;;;;11.64;100.00;98043.63;5175672;27;20046;-50
2022/09/14 05:32:05;;;;;;;19.08;10.90;;;;;;;12.00;100.00;98065.47;5175338;27;20046;-51
2022/09/14 05:34:32;;;;;;;13.32;9.85;;;;;;;11.57;100.00;98104.06;5175911;27;20501;-52
2022/09/14 05:36:58;;;;;;;14.45;9.13;;;;;;;11.79;100.00;98088.28;5175543;27;20054;-52
2022/09/14 05:39:25;;;;;;;14.40;10.00;;;;;;;11.94;100.00;98106.28;5175352;27;20046;-54
2022/09/14 05:41:51;;;;;;;13.68;10.13;;;;;;;12.04;100.00;98096.44;5175408;27;20101;-53
2022/09/14 05:44:17;;;;;;;14.77;9.70;;;;;;;11.97;100.00;98123.94;5175269;27;20054;-53
2022/09/14 05:46:44;;;;;;;13.63;9.55;;;;;;;11.88;100.00;98109.84;5175286;27;20046;-53
2022/09/14 05:49:10;;;;;;;14.93;10.25;;;;;;;12.20;100.00;98112.47;5175152;27;20458;-54
2022/09/14 05:51:37;;;;;;;14.90;10.57;;;;;;;12.24;100.00;98124.97;5175247;27;20176;-52
2022/09/14 05:54:08;;;;;;;16.55;10.30;;;;;;;12.30;100.00;98136.34;5175122;27;20433;-53
2022/09/14 05:56:34;;;;;;;17.00;10.20;;;;;;;12.10;100.00;98144.28;5175211;27;20050;-54
2022/09/14 05:59:00;;;;;;;17.98;10.52;;;;;;;12.49;100.00;98148.78;5175006;27;20046;-54
2022/09/14 06:01:28;;;;;;;16.85;10.27;;;;;;;12.70;100.00;98178.91;5175449;27;20103;-50
2022/09/14 06:03:56;;;;;;;13.65;9.57;;;;;;;12.57;100.00;98197.06;5174835;27;20046;-50
2022/09/14 06:06:23;;;;;;;24.73;10.10;;;;;;;12.92;100.00;98196.03;5174612;27;20050;-50
2022/09/14 06:08:53;;;;;;;14.75;8.85;;;;;;;12.87;100.00;98223.19;5175134;27;20098;-51
2022/09/14 06:11:22;;;;;;;12.15;9.00;;;;;;;12.62;100.00;98226.84;5174792;27;20042;-51
2022/09/14 06:13:48;;;;;;;14.85;8.90;;;;;;;12.31;100.00;98227.81;5175056;27;20137;-54
2022/09/14 06:16:17;;;;;;;14.60;8.82;;;;;;;12.17;100.00;98207.44;5174564;27;20061;-50
2022/09/14 06:18:45;;;;;;;13.57;8.52;;;;;;;12.48;100.00;98202.19;5174756;27;20046;-62
2022/09/14 06:21:14;;;;;;;12.35;7.78;;;;;;;12.38;100.00;98208.53;5174862;27;20250;-61
2022/09/14 06:23:40;;;;;;;16.58;9.82;;;;;;;12.75;100.00;98218.16;5174481;27;20096;-56
2022/09/14 06:26:08;;;;;;;13.65;8.45;;;;;;;12.23;100.00;98235.31;5173907;27;20046;-58
2022/09/14 06:28:35;;;;;;;16.85;9.95;;;;;;;13.08;100.00;98216.75;5174369;27;20102;-60
2022/09/14 06:31:03;;;;;;;11.52;8.48;;;;;;;13.20;100.00;98230.03;5174380;27;20058;-61
2022/09/14 06:33:29;;;;;;;17.17;8.45;;;;;;;13.35;100.00;98238.97;5174546;27;20046;-61
2022/09/14 06:35:56;;;;;;;12.52;8.52;;;;;;;13.41;100.00;98240.91;5174382;27;20140;-54
2022/09/14 06:38:23;;;;;;;15.70;10.30;;;;;;;13.35;100.00;98237.00;5174435;27;20050;-60
2022/09/14 06:40:54;;;;;;;14.10;9.07;;;;;;;13.53;100.00;98236.06;5174218;27;20050;-59
2022/09/14 06:43:21;;;;;;;13.90;9.15;;;;;;;13.71;100.00;98227.66;5174382;27;20046;-60
2022/09/14 06:45:58;;;;;;;15.20;8.93;;;;;;;13.88;100.00;98221.97;5174377;27;20133;-54
2022/09/14 06:48:25;;;;;;;15.85;8.90;;;;;;;13.55;100.00;98201.44;5174002;27;20046;-53
2022/09/14 06:50:51;;;;;;;13.27;8.68;;;;;;;13.29;100.00;98210.31;5174154;27;20046;-53
2022/09/14 06:53:19;;;;;;;11.13;8.35;;;;;;;13.00;100.00;98216.03;5174122;27;20046;-54
2022/09/14 06:55:45;;;;;;;12.82;7.75;;;;;;;12.72;100.00;98219.75;5174093;27;20184;-53
2022/09/14 06:58:12;;;;;;;17.00;8.55;;;;;;;12.76;100.00;98222.47;5174303;27;20054;-57
2022/09/14 07:00:39;;;;;;;11.65;10.25;;;;;;;12.53;100.00;98214.72;5173884;27;20505;-59
2022/09/14 07:03:05;;;;;;;11.52;7.90;;;;;;;12.45;100.00;98208.50;5174069;27;20050;-54
2022/09/14 07:05:32;;;;;;;8.60;7.43;;;;;;;13.17;100.00;98215.13;5173657;27;20046;-55
2022/09/14 07:07:58;;;;;;;7.78;6.78;;;;;;;13.25;100.00;98207.59;5173904;27;20057;-52
2022/09/14 07:10:27;;;;;;;13.65;7.40;;;;;;;13.28;100.00;98190.28;5174239;27;20046;-51
2022/09/14 07:12:53;;;;;;;10.10;7.13;;;;;;;13.06;100.00;98192.41;5173774;27;20054;-56
2022/09/14 07:15:20;;;;;;;12.40;7.38;;;;;;;13.11;100.00;98194.72;5173736;27;20527;-52
2022/09/14 07:17:47;;;;;;;15.57;7.25;;;;;;;13.27;100.00;98185.19;5173835;27;20050;-56
2022/09/14 07:20:14;;;;;;;13.90;7.30;;;;;;;13.03;100.00;98168.47;5173658;27;20054;-54
2022/09/14 07:22:40;;;;;;;15.35;6.90;;;;;;;13.59;100.00;98158.13;5173583;27;20139;-58
2022/09/14 07:25:07;;;;;;;8.70;6.47;;;;;;;12.99;100.00;98117.38;5173922;27;20390;-55
2022/09/14 07:27:34;;;;;;;7.95;5.88;;;;;;;13.32;100.00;98118.69;5173503;27;20081;-54
2022/09/14 07:30:00;;;;;;;10.13;6.20;;;;;;;13.56;100.00;98112.16;5173473;27;20106;-54
2022/09/14 07:32:26;;;;;;;10.40;6.18;;;;;;;14.39;100.00;98094.53;5173407;27;20053;-56
2022/09/14 07:34:53;;;;;;;7.68;5.80;;;;;;;14.32;100.00;98007.97;5173606;27;20050;-53
2022/09/14 07:37:20;;;;;;;8.10;5.78;;;;;;;14.69;100.00;98002.69;5172649;27;20061;-58
2022/09/14 07:39:46;;;;;;;7.00;5.85;;;;;;;14.91;100.00;97907.31;5172639;27;20052;-57
2022/09/14 07:42:13;;;;;;;11.13;6.47;;;;;;;14.86;100.00;97934.59;5173487;27;20050;-58
2022/09/14 07:44:39;;;;;;;7.53;6.05;;;;;;;14.43;100.00;97853.44;5173325;27;20042;-60
2022/09/14 07:47:05;;;;;;;6.80;6.10;;;;;;;14.40;100.00;97801.88;5173382;27;20087;-56
2022/09/14 07:49:32;;;;;;;8.00;5.95;;;;;;;14.59;100.00;97742.44;5173101;27;20592;-57
2022/09/14 07:51:59;;;;;;;8.98;5.93;;;;;;;14.61;100.00;97719.94;5173245;27;20050;-57
2022/09/14 07:54:25;;;;;;;10.13;6.70;;;;;;;14.36;100.00;97828.72;5173365;27;20046;-56
2022/09/14 07:56:51;;;;;;;11.52;5.45;;;;;;;14.64;100.00;97775.03;5173323;27;20042;-57
2022/09/14 07:59:18;;;;;;;9.13;6.00;;;;;;;14.44;100.00;97791.56;5173290;27;20046;-58
2022/09/14 08:01:45;;;;;;;6.55;5.65;;;;;;;15.30;100.00;97745.59;5173217;27;20077;-56
2022/09/14 08:04:11;;;;;;;6.93;5.47;;;;;;;14.35;100.00;97590.09;5172997;27;20053;-60
2022/09/14 08:06:39;;;;;;;9.05;5.57;;;;;;;14.96;100.00;97674.22;5172957;27;20050;-59
2022/09/14 08:09:09;;;;;;;6.70;5.00;;;;;;;15.09;100.00;97595.03;5173124;27;20458;-61
2022/09/14 08:11:36;;;;;;;10.85;4.63;;;;;;;15.19;100.00;97504.88;5173214;27;20092;-58
2022/09/14 08:14:05;;;;;;;16.70;4.90;;;;;;;15.26;100.00;97522.06;5172342;27;20046;-58
2022/09/14 08:16:33;;;;;;;10.85;5.00;;;;;;;15.68;100.00;97364.63;5172788;27;20046;-57
2022/09/14 08:19:01;;;;;;;11.00;5.32;;;;;;;15.13;100.00;97408.06;5172688;27;20069;-56
2022/09/14 08:21:30;;;;;;;8.88;5.00;;;;;;;14.59;100.00;97398.50;5173132;27;20098;-56
2022/09/14 08:23:58;;;;;;;8.55;5.97;;;;;;;15.03;100.00;97486.41;5172837;27;20058;-56
2022/09/14 08:26:26;;;;;;;9.45;4.78;;;;;;;14.68;100.00;97541.28;5172609;27;20058;-54
2022/09/14 08:28:54;;;;;;;8.38;4.50;;;;;;;14.67;100.00;97523.19;5172811;27;20078;-53
2022/09/14 08:31:23;;;;;;;7.65;5.32;;;;;;;14.06;100.00;97584.41;5172649;27;20505;-57
2022/09/14 08:33:51;;;;;;;12.88;6.30;;;;;;;14.32;100.00;97723.25;5173162;27;20046;-55
2022/09/14 08:36:18;;;;;;;9.07;5.53;;;;;;;14.49;100.00;97730.38;5173260;27;20113;-55
2022/09/14 08:38:47;;;;;;;10.43;5.30;;;;;;;14.52;100.00;97690.19;5172607;27;20513;-55
2022/09/14 08:41:23;;;;;;;10.30;5.78;;;;;;;14.75;100.00;97686.53;5172488;27;20051;-58
2022/09/14 08:43:52;;;;;;;7.63;5.63;;;;;;;15.16;100.00;97638.25;5172392;27;20523;-56
2022/09/14 08:46:26;;;;;;;12.50;4.82;;;;;;;15.12;100.00;97472.75;5172772;27;20057;-53
2022/09/14 08:48:53;;;;;;;12.10;4.68;;;;;;;15.15;100.00;97415.91;5172824;27;20102;-56
2022/09/14 08:51:20;;;;;;;5.60;4.45;;;;;;;14.43;100.00;97342.56;5172706;27;20103;-56
2022/09/14 08:53:46;;;;;;;6.63;4.75;;;;;;;14.17;100.00;97463.72;5172856;27;20876;-57
2022/09/14 08:56:16;;;;;;;5.03;4.00;;;;;;;14.39;100.00;97588.03;5172658;27;20056;-56
2022/09/14 08:58:53;;;;;;;8.48;3.80;;;;;;;14.03;100.00;97538.47;5172318;27;20557;-56
2022/09/14 09:01:29;;;;;;;5.72;4.30;;;;;;;14.42;100.00;97689.19;5171995;27;20141;-55
2022/09/14 09:04:14;;;;;;;6.85;5.00;;;;;;;14.47;100.00;97699.72;5172457;27;20046;-54
2022/09/14 09:06:50;;;;;;;9.82;8.82;;;;;;;14.85;100.00;97721.38;5171928;27;20050;-57
2022/09/14 09:09:24;;;;;;;7.10;4.70;;;;;;;14.28;100.00;97737.13;5172176;27;20052;-54
2022/09/14 09:11:52;;;;;;;6.32;4.50;;;;;;;13.96;100.00;97743.25;5172092;27;20077;-56
2022/09/14 09:14:24;;;;;;;8.15;5.93;;;;;;;14.13;100.00;97800.03;5172065;27;20394;-55
2022/09/14 09:16:54;;;;;;;7.75;4.65;;;;;;;14.31;100.00;97777.63;5171946;27;20050;-56
2022/09/14 09:19:26;;;;;;;7.35;5.20;;;;;;;14.07;100.00;97865.09;5172281;27;20096;-56
2022/09/14 09:21:52;;;;;;;7.72;4.72;;;;;;;14.11;100.00;97802.41;5172285;27;20068;-53
2022/09/14 09:24:26;;;;;;;13.52;5.30;;;;;;;14.82;100.00;97662.31;5172159;27;20046;-53
2022/09/14 09:26:52;;;;;;;8.18;6.40;;;;;;;14.92;100.00;97684.56;5171783;27;20050;-55
2022/09/14 09:29:19;;;;;;;10.25;5.50;;;;;;;15.53;100.00;97668.06;5172004;27;20137;-56
2022/09/14 09:31:50;;;;;;;9.75;7.82;;;;;;;15.53;100.00;97408.47;5171776;27;20098;-56
2022/09/14 09:34:20;;;;;;;8.25;4.93;;;;;;;15.02;100.00;97510.44;5172032;27;20050;-57
2022/09/14 09:36:48;;;;;;;7.40;4.38;;;;;;;15.19;100.00;97500.13;5171837;27;20462;-56
2022/09/14 09:39:15;;;;;;;7.68;4.78;;;;;;;15.56;100.00;97411.53;5171739;27;20050;-55
2022/09/14 09:41:45;;;;;;;6.72;4.65;;;;;;;14.91;100.00;97452.03;5171667;27;20050;-56
2022/09/14 09:44:12;;;;;;;9.68;4.47;;;;;;;15.72;100.00;97408.72;5172265;27;20057;-53
2022/09/14 09:46:44;;;;;;;13.95;4.63;;;;;;;15.56;100.00;97328.69;5171524;27;20053;-56
2022/09/14 09:49:18;;;;;;;8.70;4.95;;;;;;;14.98;100.00;97388.38;5171762;27;20527;-55
2022/09/14 09:51:45;;;;;;;7.10;6.40;;;;;;;14.82;100.00;97462.91;5171465;27;20082;-53
2022/09/14 09:54:24;;;;;;;13.43;7.97;;;;;;;15.30;100.00;97508.16;5171438;27;20046;-56
2022/09/14 09:56:55;;;;;;;10.70;4.90;;;;;;;14.47;100.00;97514.22;5171309;27;20436;-55
2022/09/14 09:59:34;;;;;;;11.50;6.40;;;;;;;15.03;100.00;97607.84;5172125;27;20046;-54
2022/09/14 10:02:23;;;;;;;7.07;4.97;;;;;;;15.50;100.00;97481.16;5175135;27;20543;-54
2022/09/14 10:04:57;;;;;;;6.50;5.90;;;;;;;14.95;100.00;97466.50;5174932;27;20497;-56
2022/09/14 10:07:25;;;;;;;9.45;5.05;;;;;;;14.78;100.00;97489.81;5174732;27;20050;-57
2022/09/14 10:09:58;;;;;;;9.95;5.38;;;;;;;14.97;100.00;97533.06;5174769;27;20062;-58
2022/09/14 10:12:24;;;;;;;9.98;5.35;;;;;;;14.82;100.00;97548.44;5174710;27;20145;-57
2022/09/14 10:15:05;;;;;;;10.07;9.05;;;;;;;15.38;100.00;97635.75;5174867;27;20042;-56
2022/09/14 10:17:32;;;;;;;14.15;6.70;;;;;;;14.61;100.00;97549.72;5174761;27;20050;-54
2022/09/14 10:19:59;;;;;;;16.00;5.47;;;;;;;14.56;100.00;97646.75;5175009;27;20501;-55
2022/09/14 10:22:27;;;;;;;5.20;4.70;;;;;;;14.73;100.00;97677.94;5174460;27;20553;-56
2022/09/14 10:24:56;;;;;;;7.43;5.18;;;;;;;15.24;100.00;97659.75;5174790;27;20129;-53
2022/09/14 10:27:39;;;;;;;6.22;4.82;;;;;;;14.79;100.00;97615.50;5174400;27;20505;-54
2022/09/14 10:30:10;;;;;;;7.95;4.72;;;;;;;14.37;100.00;97695.22;5174225;27;20046;-54
2022/09/14 10:32:39;;;;;;;5.97;4.78;;;;;;;14.69;100.00;97791.06;5174101;27;20047;-54
2022/09/14 10:35:11;;;;;;;6.80;4.70;;;;;;;14.76;100.00;97748.75;5174417;27;20048;-56
2022/09/14 10:37:59;;;;;;;7.57;5.47;;;;;;;14.89;100.00;97773.72;5174334;27;20054;-54
2022/09/14 10:40:35;;;;;;;13.43;5.85;;;;;;;14.74;100.00;97716.09;5174265;27;20046;-56
2022/09/14 10:43:11;;;;;;;10.00;5.45;;;;;;;14.73;100.00;97708.28;5174791;27;20042;-56
2022/09/14 10:45:41;;;;;;;12.30;5.88;;;;;;;14.73;100.00;97716.53;5174484;27;20477;-53
2022/09/14 10:48:46;;;;;;;14.13;7.47;;;;;;;14.97;100.00;97762.09;5174473;27;20101;-55
2022/09/14 10:51:36;;;;;;;17.98;10.57;;;;;;;14.81;100.00;97737.25;5173952;27;20057;-55
2022/09/14 10:54:15;;;;;;;9.13;6.53;;;;;;;14.81;100.00;97770.34;5173980;27;20057;-55
2022/09/14 10:56:55;;;;;;;11.40;5.45;;;;;;;14.51;100.00;97771.38;5174135;27;20116;-57
2022/09/14 10:59:31;;;;;;;7.65;4.53;;;;;;;14.91;100.00;97809.94;5174133;27;20133;-55
2022/09/14 11:02:32;;;;;;;8.38;5.20;;;;;;;15.22;100.00;97771.78;5173993;27;20553;-53
2022/09/14 11:05:11;;;;;;;9.45;5.82;;;;;;;14.73;100.00;97763.44;5133400;27;20102;-54
2022/09/14 11:07:47;;;;;;;12.40;7.05;;;;;;;15.28;100.00;97768.09;5173632;27;20046;-55
2022/09/14 11:10:20;;;;;;;15.57;8.02;;;;;;;14.90;100.00;97822.19;5173514;27;20046;-57
2022/09/14 11:13:00;;;;;;;13.43;7.93;;;;;;;15.04;100.00;97844.75;5173064;27;20385;-54
2022/09/14 11:15:34;;;;;;;7.88;6.70;;;;;;;14.60;100.00;97843.28;5173632;27;20290;-57
2022/09/14 11:18:15;;;;;;;11.00;7.05;;;;;;;14.90;100.00;97872.63;5173870;27;20146;-54
2022/09/14 11:21:00;;;;;;;13.63;7.22;;;;;;;14.96;100.00;97906.00;5173642;27;20067;-55
2022/09/14 11:23:39;;;;;;;10.35;7.07;;;;;;;15.43;100.00;97831.28;5173536;27;20098;-54
2022/09/14 11:26:11;;;;;;;7.60;6.65;;;;;;;14.82;100.00;97827.84;5173505;27;20042;-57